Time;durP1;ratioP1;P1;durP2;ratioP2;P2;SDS_P1;SDS_P2;PMS_P1;PMS_P2;Temp;Humidity;BMP_temperature;BMP_pressure;BME280_temperature;BME280_humidity;BME280_pressure;Samples;Min_cycle;Max_cycle;Signal;HPM_P1;HPM_P2
2022/04/02 00:00:28;;;;;;;;;;;21.00;26.20;;;;;;5140476;27;20430;-59
2022/04/02 00:02:54;;;;;;;;;;;20.90;26.30;;;;;;5142876;27;19933;-56
2022/04/02 00:05:20;;;;;;;;;;;20.90;26.30;;;;;;5129713;27;19948;-59
2022/04/02 00:07:49;;;;;;;;;;;21.00;26.30;;;;;;5142634;27;19923;-57
2022/04/02 00:10:15;;;;;;;;;;;21.00;26.20;;;;;;5142514;27;19937;-52
2022/04/02 00:12:40;;;;;;;;;;;21.00;26.20;;;;;;5147991;27;20374;-49
2022/04/02 00:15:06;;;;;;;;;;;21.10;26.10;;;;;;5142511;27;20332;-48
2022/04/02 00:17:33;;;;;;;;;;;21.30;26.00;;;;;;5144171;27;19950;-59
2022/04/02 00:19:59;;;;;;;;;;;20.70;26.70;;;;;;5142421;27;19927;-58
2022/04/02 00:22:25;;;;;;;;;;;20.90;26.50;;;;;;5142429;27;20467;-58
2022/04/02 00:24:50;;;;;;;;;;;20.80;26.50;;;;;;5147848;27;19923;-59
2022/04/02 00:27:16;;;;;;;;;;;20.90;26.40;;;;;;5142176;27;20430;-58
2022/04/02 00:29:42;;;;;;;;;;;20.90;26.40;;;;;;5141835;27;20169;-58
2022/04/02 00:32:08;;;;;;;;;;;21.00;26.40;;;;;;5147408;27;19930;-59
2022/04/02 00:34:34;;;;;;;;;;;21.00;26.30;;;;;;5141992;27;19930;-58
2022/04/02 00:37:00;;;;;;;;;;;21.00;26.30;;;;;;5147159;27;19927;-56
2022/04/02 00:39:26;;;;;;;;;;;21.00;26.40;;;;;;5149323;27;19930;-58
2022/04/02 00:41:52;;;;;;;;;;;21.10;26.30;;;;;;5146427;27;19927;-58
2022/04/02 00:44:17;;;;;;;;;;;21.10;26.30;;;;;;5151849;27;19923;-57
2022/04/02 00:46:43;;;;;;;;;;;21.10;26.20;;;;;;5146228;27;20466;-57
2022/04/02 00:49:11;;;;;;;;;;;21.10;26.20;;;;;;5146076;27;19974;-58
2022/04/02 00:51:41;;;;;;;;;;;21.10;26.10;;;;;;5151206;27;19930;-58
2022/04/02 00:54:08;;;;;;;;;;;21.10;26.20;;;;;;5124115;27;19923;-58
2022/04/02 00:56:35;;;;;;;;;;;21.10;26.20;;;;;;5145326;27;20355;-58
2022/04/02 00:59:01;;;;;;;;;;;21.10;26.20;;;;;;5133163;27;19951;-56
2022/04/02 01:01:27;;;;;;;;;;;21.20;26.10;;;;;;5146135;27;20313;-58
2022/04/02 01:03:53;;;;;;;;;;;21.20;26.00;;;;;;5132960;27;19927;-56
2022/04/02 01:06:18;;;;;;;;;;;21.10;26.00;;;;;;5146207;27;20324;-57
2022/04/02 01:08:44;;;;;;;;;;;21.20;25.90;;;;;;5145914;27;19929;-59
2022/04/02 01:11:10;;;;;;;;;;;21.10;26.00;;;;;;5149614;27;20365;-59
2022/04/02 01:13:36;;;;;;;;;;;21.10;26.10;;;;;;5142553;27;19982;-58
2022/04/02 01:16:02;;;;;;;;;;;21.10;26.00;;;;;;5145782;27;20011;-58
2022/04/02 01:18:27;;;;;;;;;;;21.10;26.00;;;;;;5151557;27;20017;-57
2022/04/02 01:20:53;;;;;;;;;;;21.10;26.00;;;;;;5145945;27;19927;-57
2022/04/02 01:23:19;;;;;;;;;;;21.20;25.90;;;;;;5151149;27;19923;-58
2022/04/02 01:25:45;;;;;;;;;;;21.00;26.10;;;;;;5145325;27;19923;-57
2022/04/02 01:28:11;;;;;;;;;;;21.00;26.10;;;;;;5144854;27;20442;-59
2022/04/02 01:30:36;;;;;;;;;;;21.00;26.20;;;;;;5147556;27;19944;-56
2022/04/02 01:33:02;;;;;;;;;;;21.00;26.20;;;;;;5144160;27;19923;-56
2022/04/02 01:35:28;;;;;;;;;;;21.00;26.20;;;;;;5127146;27;20120;-58
2022/04/02 01:37:54;;;;;;;;;;;21.00;26.20;;;;;;5150765;27;20015;-53
2022/04/02 01:40:20;;;;;;;;;;;21.10;26.10;;;;;;5145764;27;19931;-51
2022/04/02 01:42:46;;;;;;;;;;;21.10;26.00;;;;;;5149957;27;19948;-56
2022/04/02 01:45:12;;;;;;;;;;;21.10;25.90;;;;;;5145503;27;19927;-59
2022/04/02 01:47:37;;;;;;;;;;;21.10;26.00;;;;;;5143923;27;20524;-56
2022/04/02 01:50:04;;;;;;;;;;;21.10;26.00;;;;;;5128290;27;19927;-53
2022/04/02 01:52:29;;;;;;;;;;;21.20;26.00;;;;;;5145105;27;19929;-58
2022/04/02 01:54:55;;;;;;;;;;;21.10;26.00;;;;;;5126641;27;20370;-58
2022/04/02 01:57:21;;;;;;;;;;;21.10;26.00;;;;;;5150643;27;19927;-59
2022/04/02 01:59:49;;;;;;;;;;;21.00;26.00;;;;;;5145312;27;19923;-54
2022/04/02 02:02:16;;;;;;;;;;;21.10;25.90;;;;;;5146037;27;20430;-58
2022/04/02 02:04:42;;;;;;;;;;;21.00;26.00;;;;;;5149762;27;19949;-58
2022/04/02 02:07:07;;;;;;;;;;;21.00;26.00;;;;;;5142370;27;19923;-53
2022/04/02 02:09:33;;;;;;;;;;;21.00;26.00;;;;;;5148518;27;20220;-55
2022/04/02 02:12:00;;;;;;;;;;;21.20;25.90;;;;;;5145507;27;19927;-57
2022/04/02 02:14:26;;;;;;;;;;;21.20;25.80;;;;;;5145465;27;19933;-58
2022/04/02 02:16:51;;;;;;;;;;;21.10;26.00;;;;;;5150948;27;19927;-58
2022/04/02 02:19:17;;;;;;;;;;;21.10;26.00;;;;;;5145305;27;19934;-57
2022/04/02 02:21:43;;;;;;;;;;;21.20;25.90;;;;;;5145078;27;19927;-54
2022/04/02 02:24:09;;;;;;;;;;;21.10;25.90;;;;;;5149961;27;19930;-59
2022/04/02 02:26:35;;;;;;;;;;;20.90;26.20;;;;;;5141766;27;20125;-59
2022/04/02 02:29:04;;;;;;;;;;;21.00;26.10;;;;;;5149699;27;20005;-58
2022/04/02 02:31:31;;;;;;;;;;;21.00;26.10;;;;;;5145047;27;19946;-58
2022/04/02 02:36:41;;;;;;;;;;;21.00;26.00;;;;;;5150585;27;19975;-58
2022/04/02 02:39:06;;;;;;;;;;;21.10;25.90;;;;;;5144848;27;19927;-59
2022/04/02 02:41:32;;;;;;;;;;;21.20;25.80;;;;;;5144755;27;19923;-58
2022/04/02 02:43:58;;;;;;;;;;;21.10;25.90;;;;;;5148070;27;19959;-57
2022/04/02 02:46:24;;;;;;;;;;;21.10;25.90;;;;;;5142087;27;19981;-58
2022/04/02 02:48:50;;;;;;;;;;;21.10;25.90;;;;;;5144713;27;19927;-57
2022/04/02 02:51:16;;;;;;;;;;;21.20;25.90;;;;;;5131753;27;19923;-55
2022/04/02 02:53:44;;;;;;;;;;;21.20;25.80;;;;;;5144955;27;19927;-59
2022/04/02 02:56:10;;;;;;;;;;;21.10;25.80;;;;;;5150095;27;20316;-59
2022/04/02 02:58:36;;;;;;;;;;;21.00;25.90;;;;;;5144110;27;19923;-58
2022/04/02 03:01:01;;;;;;;;;;;21.10;25.90;;;;;;5143863;27;19923;-57
2022/04/02 03:03:27;;;;;;;;;;;21.10;25.90;;;;;;5146557;27;20554;-58
2022/04/02 03:05:53;;;;;;;;;;;21.10;25.90;;;;;;5143384;27;19930;-58
2022/04/02 03:08:19;;;;;;;;;;;21.00;25.90;;;;;;5143959;27;19930;-59
2022/04/02 03:10:45;;;;;;;;;;;21.10;25.90;;;;;;5149007;27;19933;-57
2022/04/02 03:13:11;;;;;;;;;;;21.20;25.80;;;;;;5143562;27;19923;-54
2022/04/02 03:15:37;;;;;;;;;;;21.20;25.80;;;;;;5130360;27;19927;-57
2022/04/02 03:18:06;;;;;;;;;;;20.90;26.10;;;;;;5143451;27;19938;-59
2022/04/02 03:20:31;;;;;;;;;;;21.00;25.90;;;;;;5141947;27;20014;-59
2022/04/02 03:22:57;;;;;;;;;;;21.00;25.80;;;;;;5145409;27;20453;-59
2022/04/02 03:25:23;;;;;;;;;;;21.00;25.80;;;;;;5143516;27;19923;-59
2022/04/02 03:27:49;;;;;;;;;;;21.00;25.80;;;;;;5143463;27;19923;-59
2022/04/02 03:30:16;;;;;;;;;;;21.10;25.80;;;;;;5148617;27;19927;-57
2022/04/02 03:32:42;;;;;;;;;;;21.10;25.80;;;;;;5143107;27;19966;-58
2022/04/02 03:35:08;;;;;;;;;;;21.10;25.70;;;;;;5144747;27;19946;-57
2022/04/02 03:37:37;;;;;;;;;;;21.00;25.80;;;;;;5144569;27;19923;-54
2022/04/02 03:40:05;;;;;;;;;;;21.00;25.80;;;;;;5140425;27;19923;-60
2022/04/02 03:42:31;;;;;;;;;;;21.20;25.70;;;;;;5146664;27;19923;-56
2022/04/02 03:44:56;;;;;;;;;;;21.00;26.00;;;;;;5143037;27;20009;-56
2022/04/02 03:47:22;;;;;;;;;;;21.10;25.90;;;;;;5143060;27;20222;-58
2022/04/02 03:49:48;;;;;;;;;;;21.20;25.80;;;;;;5148169;27;19923;-58
2022/04/02 03:52:15;;;;;;;;;;;21.10;25.80;;;;;;5142720;27;19923;-59
2022/04/02 03:54:41;;;;;;;;;;;21.10;25.80;;;;;;5142543;27;20326;-58
2022/04/02 03:57:07;;;;;;;;;;;21.10;25.80;;;;;;5147139;27;20362;-56
2022/04/02 03:59:32;;;;;;;;;;;21.10;25.70;;;;;;5120391;27;19950;-57
2022/04/02 04:01:58;;;;;;;;;;;21.20;25.70;;;;;;5148010;27;19952;-58
2022/04/02 04:04:24;;;;;;;;;;;21.10;25.70;;;;;;5142790;27;19957;-58
2022/04/02 04:06:50;;;;;;;;;;;20.90;25.90;;;;;;5143016;27;19923;-59
2022/04/02 04:09:16;;;;;;;;;;;21.00;25.80;;;;;;5147544;27;19923;-59
2022/04/02 04:11:42;;;;;;;;;;;21.10;25.80;;;;;;5142461;27;19992;-58
2022/04/02 04:14:08;;;;;;;;;;;21.10;25.70;;;;;;5142502;27;19923;-58
2022/04/02 04:16:34;;;;;;;;;;;21.10;25.60;;;;;;5145585;27;19927;-59
2022/04/02 04:18:59;;;;;;;;;;;21.00;25.70;;;;;;5139978;27;20388;-58
2022/04/02 04:21:25;;;;;;;;;;;20.90;25.70;;;;;;5147644;27;19923;-57
2022/04/02 04:23:51;;;;;;;;;;;21.10;25.60;;;;;;5142574;27;20352;-58
2022/04/02 04:26:17;;;;;;;;;;;21.20;25.40;;;;;;5142227;27;19967;-58
2022/04/02 04:28:43;;;;;;;;;;;21.00;25.60;;;;;;5147732;27;20422;-58
2022/04/02 04:31:08;;;;;;;;;;;21.00;25.60;;;;;;5142049;27;19934;-56
2022/04/02 04:33:35;;;;;;;;;;;21.00;25.60;;;;;;5141587;27;20215;-55
2022/04/02 04:36:01;;;;;;;;;;;21.00;25.50;;;;;;5144485;27;19937;-52
2022/04/02 04:38:27;;;;;;;;;;;21.20;25.40;;;;;;5141352;27;19927;-59
2022/04/02 04:40:52;;;;;;;;;;;21.20;25.50;;;;;;5145602;27;19923;-53
2022/04/02 04:43:18;;;;;;;;;;;21.20;25.60;;;;;;5145122;27;20367;-58
2022/04/02 04:45:44;;;;;;;;;;;21.20;25.60;;;;;;5142148;27;19931;-58
2022/04/02 04:48:10;;;;;;;;;;;21.10;25.80;;;;;;5147398;27;19976;-57
2022/04/02 04:50:36;;;;;;;;;;;21.10;26.00;;;;;;5141793;27;20067;-53
2022/04/02 04:53:02;;;;;;;;;;;21.10;25.90;;;;;;5140811;27;19931;-60
2022/04/02 04:55:28;;;;;;;;;;;21.20;26.00;;;;;;5143867;27;19949;-58
2022/04/02 04:57:54;;;;;;;;;;;21.10;26.00;;;;;;5142159;27;19924;-46
2022/04/02 05:00:20;;;;;;;;;;;21.10;25.90;;;;;;5142345;27;19927;-58
2022/04/02 05:02:47;;;;;;;;;;;21.10;25.90;;;;;;5147366;27;20430;-59
2022/04/02 05:05:13;;;;;;;;;;;21.00;26.10;;;;;;5140011;27;20006;-57
2022/04/02 05:07:39;;;;;;;;;;;21.00;26.10;;;;;;5147425;27;19927;-57
2022/04/02 05:10:05;;;;;;;;;;;21.20;25.90;;;;;;5141297;27;20370;-59
2022/04/02 05:12:31;;;;;;;;;;;21.00;26.10;;;;;;5120712;27;20568;-57
2022/04/02 05:14:57;;;;;;;;;;;21.10;26.10;;;;;;5144876;27;20010;-57
2022/04/02 05:17:23;;;;;;;;;;;21.00;26.00;;;;;;5142086;27;20345;-54
2022/04/02 05:19:49;;;;;;;;;;;21.20;25.90;;;;;;5142704;27;20276;-58
2022/04/02 05:22:15;;;;;;;;;;;21.20;25.80;;;;;;5151230;27;20202;-56
2022/04/02 05:24:41;;;;;;;;;;;21.10;25.90;;;;;;5145503;27;20379;-57
2022/04/02 05:27:06;;;;;;;;;;;21.10;25.90;;;;;;5150800;27;19927;-57
2022/04/02 05:29:32;;;;;;;;;;;21.10;25.90;;;;;;5144652;27;19935;-50
2022/04/02 05:31:58;;;;;;;;;;;21.10;25.80;;;;;;5142052;27;19949;-58
2022/04/02 05:34:24;;;;;;;;;;;21.00;25.90;;;;;;5150254;27;19923;-59
2022/04/02 05:36:49;;;;;;;;;;;21.00;26.00;;;;;;5145355;27;20393;-59
2022/04/02 05:39:15;;;;;;;;;;;20.90;26.00;;;;;;5145535;27;20322;-57
2022/04/02 05:41:41;;;;;;;;;;;20.90;26.00;;;;;;5150808;27;19931;-58
2022/04/02 05:44:07;;;;;;;;;;;20.90;26.00;;;;;;5145320;27;19923;-58
2022/04/02 05:46:33;;;;;;;;;;;21.00;26.00;;;;;;5150586;27;19971;-57
2022/04/02 05:48:59;;;;;;;;;;;21.00;26.00;;;;;;5143617;27;20099;-51
2022/04/02 05:51:25;;;;;;;;;;;21.10;25.90;;;;;;5142396;27;19945;-55
2022/04/02 05:53:51;;;;;;;;;;;21.30;25.70;;;;;;5150880;27;20370;-53
2022/04/02 05:56:17;;;;;;;;;;;21.10;25.80;;;;;;5143682;27;20433;-60
2022/04/02 05:58:44;;;;;;;;;;;21.20;25.70;;;;;;5145265;27;19923;-58
2022/04/02 06:01:09;;;;;;;;;;;21.10;25.80;;;;;;5150764;27;19923;-56
2022/04/02 06:03:36;;;;;;;;;;;21.10;25.80;;;;;;5145145;27;19929;-56
2022/04/02 06:06:02;;;;;;;;;;;21.10;25.70;;;;;;5147533;27;19923;-56
2022/04/02 06:08:28;;;;;;;;;;;21.10;25.80;;;;;;5144577;27;20403;-55
2022/04/02 06:10:54;;;;;;;;;;;21.00;25.90;;;;;;5143325;27;20275;-59
2022/04/02 06:13:19;;;;;;;;;;;21.00;26.00;;;;;;5150190;27;19923;-58
2022/04/02 06:15:45;;;;;;;;;;;21.00;25.90;;;;;;5144716;27;19971;-58
2022/04/02 06:18:12;;;;;;;;;;;20.90;26.00;;;;;;5126103;27;19927;-58
2022/04/02 06:20:38;;;;;;;;;;;21.00;26.00;;;;;;5150027;27;20010;-55
2022/04/02 06:23:04;;;;;;;;;;;21.00;25.90;;;;;;5144253;27;20692;-55
2022/04/02 06:25:30;;;;;;;;;;;21.00;25.80;;;;;;5144101;27;19938;-51
2022/04/02 06:27:56;;;;;;;;;;;21.10;25.80;;;;;;5146573;27;19929;-44
2022/04/02 06:30:21;;;;;;;;;;;21.20;25.60;;;;;;5144408;27;20010;-58
2022/04/02 06:32:47;;;;;;;;;;;21.00;25.80;;;;;;5149294;27;20298;-60
2022/04/02 06:35:13;;;;;;;;;;;20.80;26.10;;;;;;5125942;27;20290;-59
2022/04/02 06:37:39;;;;;;;;;;;20.80;26.10;;;;;;5144463;27;19927;-58
2022/04/02 06:40:06;;;;;;;;;;;20.90;25.90;;;;;;5149502;27;20040;-59
2022/04/02 06:42:32;;;;;;;;;;;20.90;25.90;;;;;;5144058;27;19931;-57
2022/04/02 06:44:57;;;;;;;;;;;20.90;25.90;;;;;;5141674;27;20066;-57
2022/04/02 06:47:24;;;;;;;;;;;20.90;25.90;;;;;;5146947;27;19923;-58
2022/04/02 06:49:50;;;;;;;;;;;21.00;25.80;;;;;;5144194;27;19933;-58
2022/04/02 06:52:16;;;;;;;;;;;21.00;25.70;;;;;;5149627;27;19930;-49
2022/04/02 06:54:42;;;;;;;;;;;21.10;25.60;;;;;;5144832;27;19934;-58
2022/04/02 06:57:07;;;;;;;;;;;21.20;25.50;;;;;;5143880;27;20390;-59
2022/04/02 06:59:33;;;;;;;;;;;21.20;25.60;;;;;;5149236;27;19992;-59
2022/04/02 07:01:59;;;;;;;;;;;21.00;25.70;;;;;;5143167;27;19934;-57
2022/04/02 07:04:25;;;;;;;;;;;21.00;25.70;;;;;;5140679;27;20251;-58
2022/04/02 07:06:50;;;;;;;;;;;21.00;25.70;;;;;;5148301;27;19930;-50
2022/04/02 07:09:18;;;;;;;;;;;21.10;25.70;;;;;;5144030;27;20345;-58
2022/04/02 07:11:44;;;;;;;;;;;21.20;25.60;;;;;;5148851;27;20005;-58
2022/04/02 07:14:10;;;;;;;;;;;21.00;25.80;;;;;;5143636;27;19929;-59
2022/04/02 07:16:36;;;;;;;;;;;21.10;25.90;;;;;;5143276;27;19927;-57
2022/04/02 07:19:02;;;;;;;;;;;21.10;25.90;;;;;;5148485;27;19922;-59
2022/04/02 07:21:28;;;;;;;;;;;21.10;25.90;;;;;;5141836;27;20396;-58
2022/04/02 07:23:54;;;;;;;;;;;21.20;25.80;;;;;;5139868;27;19935;-58
2022/04/02 07:26:20;;;;;;;;;;;21.20;25.80;;;;;;5130030;27;20046;-59
2022/04/02 07:28:45;;;;;;;;;;;21.10;26.00;;;;;;5143039;27;20532;-59
2022/04/02 07:31:11;;;;;;;;;;;21.10;25.90;;;;;;5146584;27;19927;-57
2022/04/02 07:33:37;;;;;;;;;;;21.10;25.80;;;;;;5145551;27;20379;-48
2022/04/02 07:36:09;;;;;;;;;;;21.10;25.70;;;;;;5143047;27;19923;-58
2022/04/02 07:38:48;;;;;;;;;;;21.10;25.70;;;;;;5147926;27;19923;-58
2022/04/02 07:41:14;;;;;;;;;;;21.20;25.80;;;;;;5140011;27;20005;-56
2022/04/02 07:43:41;;;;;;;;;;;21.10;25.80;;;;;;5122242;27;19927;-58
2022/04/02 07:46:12;;;;;;;;;;;21.20;25.70;;;;;;5148572;27;19933;-55
2022/04/02 07:48:39;;;;;;;;;;;20.90;26.00;;;;;;5124341;27;19931;-59
2022/04/02 07:51:11;;;;;;;;;;;20.90;25.90;;;;;;5142648;27;20280;-58
2022/04/02 07:53:41;;;;;;;;;;;20.90;25.90;;;;;;5148357;27;20410;-58
2022/04/02 07:56:07;;;;;;;;;;;20.90;25.80;;;;;;5142545;27;19927;-59
2022/04/02 07:58:34;;;;;;;;;;;20.90;25.80;;;;;;5141293;27;19923;-57
2022/04/02 08:01:02;;;;;;;;;;;20.90;25.80;;;;;;5144581;27;19938;-59
2022/04/02 08:03:29;;;;;;;;;;;21.00;25.80;;;;;;5142399;27;19933;-58
2022/04/02 08:05:57;;;;;;;;;;;21.00;25.80;;;;;;5148063;27;19937;-58
2022/04/02 08:08:23;;;;;;;;;;;21.10;25.60;;;;;;5143300;27;19927;-56
2022/04/02 08:10:51;;;;;;;;;;;21.10;25.60;;;;;;5142842;27;19971;-50
2022/04/02 08:13:17;;;;;;;;;;;21.10;25.60;;;;;;5129601;27;19971;-58
2022/04/02 08:15:42;;;;;;;;;;;21.00;25.70;;;;;;5142210;27;19953;-58
2022/04/02 08:18:08;;;;;;;;;;;21.00;25.60;;;;;;5139638;27;19923;-56
2022/04/02 08:20:34;;;;;;;;;;;21.00;25.60;;;;;;5127693;27;20343;-58
2022/04/02 08:23:01;;;;;;;;;;;21.00;25.60;;;;;;5142585;27;20001;-56
2022/04/02 08:25:27;;;;;;;;;;;21.10;25.60;;;;;;5144102;27;20354;-54
2022/04/02 08:27:54;;;;;;;;;;;21.10;25.50;;;;;;5146770;27;19952;-54
2022/04/02 08:30:23;;;;;;;;;;;21.20;25.30;;;;;;5142028;27;19923;-57
2022/04/02 08:33:08;;;;;;;;;;;21.10;25.40;;;;;;5147648;27;19939;-58
2022/04/02 08:35:39;;;;;;;;;;;21.00;25.50;;;;;;5143688;27;19923;-59
2022/04/02 08:38:10;;;;;;;;;;;21.10;25.40;;;;;;5139038;27;19922;-59
2022/04/02 08:40:48;;;;;;;;;;;21.00;25.50;;;;;;5147802;27;19927;-57
2022/04/02 08:43:13;;;;;;;;;;;21.00;25.40;;;;;;5142971;27;20009;-57
2022/04/02 08:45:48;;;;;;;;;;;21.00;25.40;;;;;;5142197;27;19928;-52
2022/04/02 08:48:23;;;;;;;;;;;21.10;25.40;;;;;;5129392;27;19941;-58
2022/04/02 08:50:50;;;;;;;;;;;21.10;25.30;;;;;;5141929;27;19971;-60
2022/04/02 08:53:16;;;;;;;;;;;21.10;25.30;;;;;;5141387;27;19923;-58
2022/04/02 08:55:45;;;;;;;;;;;21.10;25.30;;;;;;5146266;27;19934;-57
2022/04/02 08:58:17;;;;;;;;;;;21.00;25.40;;;;;;5145612;27;19930;-57
2022/04/02 09:00:44;;;;;;;;;;;21.10;25.30;;;;;;5128072;27;19982;-58
2022/04/02 09:03:16;;;;;;;;;;;21.20;25.30;;;;;;5151732;27;19971;-59
2022/04/02 09:05:45;;;;;;;;;;;21.10;25.40;;;;;;5146361;27;19934;-58
2022/04/02 09:08:30;;;;;;;;;;;21.10;25.50;;;;;;5145992;27;20035;-58
2022/04/02 09:11:05;;;;;;;;;;;21.10;25.50;;;;;;5151218;27;20419;-57
2022/04/02 09:13:46;;;;;;;;;;;21.10;25.50;;;;;;5125394;27;20444;-57
2022/04/02 09:16:31;;;;;;;;;;;21.10;25.40;;;;;;5125536;27;19927;-54
2022/04/02 09:19:07;;;;;;;;;;;21.10;25.40;;;;;;5151391;27;19960;-59
2022/04/02 09:21:32;;;;;;;;;;;21.10;25.30;;;;;;5127369;27;19927;-58
2022/04/02 09:24:07;;;;;;;;;;;21.10;25.40;;;;;;5145841;27;20302;-59
2022/04/02 09:26:33;;;;;;;;;;;21.10;25.40;;;;;;5151074;27;19962;-57
2022/04/02 09:29:06;;;;;;;;;;;21.20;25.30;;;;;;5145484;27;19927;-59
2022/04/02 09:31:44;;;;;;;;;;;21.20;25.30;;;;;;5125346;27;19923;-57
2022/04/02 09:34:12;;;;;;;;;;;21.10;25.40;;;;;;5148267;27;19927;-59
2022/04/02 09:36:49;;;;;;;;;;;21.10;25.30;;;;;;5145290;27;19927;-58
2022/04/02 09:39:14;;;;;;;;;;;21.10;25.20;;;;;;5126987;27;20257;-58
2022/04/02 09:41:46;;;;;;;;;;;21.20;25.10;;;;;;5151045;27;20406;-59
2022/04/02 09:44:29;;;;;;;;;;;21.10;25.10;;;;;;5145548;27;19923;-54
2022/04/02 09:47:03;;;;;;;;;;;21.10;25.00;;;;;;5145499;27;20516;-52
2022/04/02 09:50:02;;;;;;;;;;;21.10;25.00;;;;;;5149622;27;19935;-57
2022/04/02 09:52:27;;;;;;;;;;;21.10;25.00;;;;;;5083566;27;20005;-52
2022/04/02 09:55:11;;;;;;;;;;;21.20;25.00;;;;;;5145234;27;19923;-56
2022/04/02 09:57:38;;;;;;;;;;;21.20;25.10;;;;;;5150368;27;19927;-59
2022/04/02 10:00:05;;;;;;;;;;;21.10;25.20;;;;;;5144866;27;19923;-58
2022/04/02 10:02:34;;;;;;;;;;;20.90;25.30;;;;;;5145042;27;19927;-59
2022/04/02 10:05:03;;;;;;;;;;;20.90;25.20;;;;;;5150290;27;19927;-59
2022/04/02 10:07:38;;;;;;;;;;;20.90;25.20;;;;;;5143395;27;19930;-57
2022/04/02 10:10:04;;;;;;;;;;;21.00;25.10;;;;;;5141357;27;19924;-56
2022/04/02 10:12:30;;;;;;;;;;;21.00;25.10;;;;;;5149548;27;19953;-58
2022/04/02 10:14:56;;;;;;;;;;;21.00;25.10;;;;;;5144682;27;19934;-59
2022/04/02 10:17:25;;;;;;;;;;;21.00;25.00;;;;;;5150188;27;19986;-54
2022/04/02 10:19:50;;;;;;;;;;;21.10;24.90;;;;;;5126637;27;19923;-50
2022/04/02 10:22:16;;;;;;;;;;;21.20;24.80;;;;;;5125964;27;19977;-57
2022/04/02 10:24:49;;;;;;;;;;;21.20;24.80;;;;;;5131494;27;19927;-57
2022/04/02 10:27:31;;;;;;;;;;;21.20;24.90;;;;;;5142757;27;19929;-58
2022/04/02 10:30:00;;;;;;;;;;;21.10;24.90;;;;;;5141813;27;19929;-57
2022/04/02 10:32:39;;;;;;;;;;;21.10;24.90;;;;;;5131449;27;19936;-57
2022/04/02 10:35:05;;;;;;;;;;;21.10;24.90;;;;;;5125778;27;19923;-59
2022/04/02 10:37:41;;;;;;;;;;;21.10;25.00;;;;;;5144529;27;19923;-59
2022/04/02 10:40:13;;;;;;;;;;;21.10;25.10;;;;;;5149649;27;19970;-58
2022/04/02 10:42:40;;;;;;;;;;;21.00;25.20;;;;;;5125566;27;20297;-59
2022/04/02 10:45:07;;;;;;;;;;;21.00;25.10;;;;;;5143090;27;19923;-59
2022/04/02 10:47:44;;;;;;;;;;;21.00;25.10;;;;;;5146082;27;19940;-55
2022/04/02 10:50:10;;;;;;;;;;;21.00;25.10;;;;;;5125166;27;19931;-57
2022/04/02 10:52:36;;;;;;;;;;;21.10;25.00;;;;;;5144447;27;19967;-53
2022/04/02 10:55:03;;;;;;;;;;;21.10;25.00;;;;;;5149411;27;19927;-51
2022/04/02 10:57:32;;;;;;;;;;;21.10;24.90;;;;;;5144158;27;19923;-52
2022/04/02 11:00:00;;;;;;;;;;;21.20;24.80;;;;;;5148906;27;19984;-58
2022/04/02 11:02:30;;;;;;;;;;;21.20;24.80;;;;;;5143307;27;20006;-56
2022/04/02 11:04:59;;;;;;;;;;;21.00;24.90;;;;;;5140820;27;20358;-59
2022/04/02 11:07:26;;;;;;;;;;;21.00;24.90;;;;;;5128601;27;19936;-58
2022/04/02 11:09:52;;;;;;;;;;;21.00;24.90;;;;;;5143578;27;19929;-58
2022/04/02 11:12:19;;;;;;;;;;;21.00;24.90;;;;;;5125273;27;19923;-56
2022/04/02 11:14:51;;;;;;;;;;;21.00;24.80;;;;;;5130786;27;19929;-57
2022/04/02 11:17:29;;;;;;;;;;;21.10;24.70;;;;;;5143778;27;20400;-58
2022/04/02 11:20:02;;;;;;;;;;;21.00;24.90;;;;;;5143498;27;19945;-53
2022/04/02 11:22:29;;;;;;;;;;;21.10;24.70;;;;;;5147474;27;19937;-51
2022/04/02 11:24:55;;;;;;;;;;;21.20;24.60;;;;;;5139965;27;19927;-57
2022/04/02 11:27:21;;;;;;;;;;;21.20;24.60;;;;;;5145792;27;19927;-55
2022/04/02 11:29:48;;;;;;;;;;;21.20;24.60;;;;;;5128078;27;20026;-55
2022/04/02 11:32:14;;;;;;;;;;;21.20;24.60;;;;;;5143453;27;19931;-59
2022/04/02 11:34:40;;;;;;;;;;;21.10;24.80;;;;;;5148626;27;20294;-60
2022/04/02 11:37:07;;;;;;;;;;;21.00;25.00;;;;;;5142889;27;19932;-58
2022/04/02 11:39:33;;;;;;;;;;;20.90;25.00;;;;;;5142599;27;20043;-59
2022/04/02 11:41:59;;;;;;;;;;;20.90;25.10;;;;;;5145423;27;19984;-58
2022/04/02 11:44:34;;;;;;;;;;;20.90;25.00;;;;;;5122330;27;20409;-59
2022/04/02 11:47:00;;;;;;;;;;;20.90;25.10;;;;;;5143156;27;20091;-58
2022/04/02 11:49:29;;;;;;;;;;;20.90;25.10;;;;;;5148573;27;19938;-58
2022/04/02 11:52:05;;;;;;;;;;;20.90;25.10;;;;;;5142854;27;20392;-57
2022/04/02 11:54:31;;;;;;;;;;;20.80;25.20;;;;;;5143453;27;19931;-57
2022/04/02 11:57:09;;;;;;;;;;;20.80;25.30;;;;;;5147693;27;19972;-57
2022/04/02 11:59:38;;;;;;;;;;;20.80;25.30;;;;;;5141440;27;19981;-56
2022/04/02 12:02:04;;;;;;;;;;;20.80;25.30;;;;;;5126480;27;20279;-56
2022/04/02 12:04:30;;;;;;;;;;;20.90;25.20;;;;;;5142913;27;19931;-58
2022/04/02 12:07:03;;;;;;;;;;;20.90;25.20;;;;;;5143034;27;19944;-56
2022/04/02 12:09:29;;;;;;;;;;;21.00;25.30;;;;;;5148246;27;19927;-56
2022/04/02 12:12:12;;;;;;;;;;;20.90;25.30;;;;;;5142804;27;20404;-56
2022/04/02 12:14:39;;;;;;;;;;;20.90;25.40;;;;;;5123944;27;19930;-58
2022/04/02 12:17:11;;;;;;;;;;;21.00;25.50;;;;;;5128961;27;20018;-57
2022/04/02 12:20:03;;;;;;;;;;;20.90;25.50;;;;;;5120893;27;19931;-58
2022/04/02 12:22:34;;;;;;;;;;;21.00;25.50;;;;;;5137777;27;19923;-55
2022/04/02 12:25:04;;;;;;;;;;;21.00;25.40;;;;;;5147732;27;20050;-58
2022/04/02 12:27:31;;;;;;;;;;;21.00;25.40;;;;;;5142394;27;19930;-59
2022/04/02 12:29:57;;;;;;;;;;;21.00;25.30;;;;;;5141970;27;19933;-57
2022/04/02 12:32:30;;;;;;;;;;;21.00;25.20;;;;;;5147804;27;19930;-58
2022/04/02 12:35:00;;;;;;;;;;;21.00;25.20;;;;;;5140229;27;19923;-57
2022/04/02 12:37:30;;;;;;;;;;;21.00;25.20;;;;;;5138226;27;20230;-57
2022/04/02 12:39:56;;;;;;;;;;;21.00;25.30;;;;;;5143621;27;19923;-53
2022/04/02 12:42:35;;;;;;;;;;;21.00;25.10;;;;;;5142564;27;19923;-50
2022/04/02 12:45:05;;;;;;;;;;;21.10;25.10;;;;;;5142490;27;20510;-47
2022/04/02 12:47:31;;;;;;;;;;;21.20;25.00;;;;;;5147629;27;19923;-59
2022/04/02 12:49:57;;;;;;;;;;;21.30;24.90;;;;;;5123548;27;20347;-59
2022/04/02 12:52:24;;;;;;;;;;;21.10;25.10;;;;;;5128762;27;19934;-55
2022/04/02 12:54:55;;;;;;;;;;;20.90;25.20;;;;;;5141965;27;19930;-57
2022/04/02 12:57:21;;;;;;;;;;;20.90;25.30;;;;;;5138815;27;19946;-59
2022/04/02 12:59:53;;;;;;;;;;;20.90;25.20;;;;;;5146949;27;19930;-59
2022/04/02 13:02:19;;;;;;;;;;;20.90;25.40;;;;;;5142052;27;19923;-56
2022/04/02 13:04:52;;;;;;;;;;;20.90;25.50;;;;;;5142085;27;19962;-59
2022/04/02 13:07:19;;;;;;;;;;;20.90;25.50;;;;;;5147451;27;20299;-58
2022/04/02 13:09:45;;;;;;;;;;;20.90;25.50;;;;;;5141659;27;19923;-59
2022/04/02 13:12:10;;;;;;;;;;;20.90;25.40;;;;;;5141625;27;20259;-57
2022/04/02 13:14:38;;;;;;;;;;;20.90;25.30;;;;;;5144764;27;19934;-57
2022/04/02 13:17:07;;;;;;;;;;;20.90;25.30;;;;;;5139696;27;19955;-58
2022/04/02 13:22:39;;;;;;;;;;;21.00;25.20;;;;;;5131725;27;20002;-58
2022/04/02 13:25:12;;;;;;;;;;;20.90;25.30;;;;;;5141876;27;19923;-58
2022/04/02 13:28:04;;;;;;;;;;;21.00;25.30;;;;;;5141861;27;20231;-55
2022/04/02 13:30:34;;;;;;;;;;;21.00;25.30;;;;;;5141994;27;19994;-55
2022/04/02 13:33:18;;;;;;;;;;;21.00;25.50;;;;;;5139557;27;19996;-58
2022/04/02 13:35:45;;;;;;;;;;;21.00;25.40;;;;;;5139839;27;19923;-55
2022/04/02 13:38:18;;;;;;;;;;;21.00;25.40;;;;;;5147360;27;19968;-54
2022/04/02 13:40:44;;;;;;;;;;;21.10;25.40;;;;;;5141779;27;20014;-53
2022/04/02 13:43:10;;;;;;;;;;;21.00;25.40;;;;;;5144497;27;20170;-52
2022/04/02 13:45:36;;;;;;;;;;;21.10;25.40;;;;;;5150922;27;19934;-50
2022/04/02 13:48:03;;;;;;;;;;;21.20;25.30;;;;;;5145656;27;20304;-53
2022/04/02 13:50:29;;;;;;;;;;;21.30;25.30;;;;;;5148868;27;19923;-56
2022/04/02 13:53:00;;;;;;;;;;;21.20;25.30;;;;;;5143310;27;19982;-51
2022/04/02 13:55:26;;;;;;;;;;;21.30;25.30;;;;;;5126233;27;20404;-54
2022/04/02 13:57:52;;;;;;;;;;;21.10;25.40;;;;;;5150713;27;20018;-58
2022/04/02 14:00:18;;;;;;;;;;;21.10;25.40;;;;;;5126897;27;19930;-54
2022/04/02 14:02:45;;;;;;;;;;;21.20;25.40;;;;;;5145249;27;20018;-56
2022/04/02 14:05:17;;;;;;;;;;;21.10;25.50;;;;;;5150374;27;19923;-53
2022/04/02 14:08:03;;;;;;;;;;;21.10;25.50;;;;;;5144891;27;19923;-55
2022/04/02 14:10:33;;;;;;;;;;;21.20;25.40;;;;;;5141334;27;19931;-49
2022/04/02 14:12:59;;;;;;;;;;;21.20;25.40;;;;;;5148671;27;21090;-48
2022/04/02 14:15:25;;;;;;;;;;;21.30;25.40;;;;;;5144928;27;19927;-58
2022/04/02 14:17:53;;;;;;;;;;;21.20;25.40;;;;;;5144865;27;19949;-54
2022/04/02 14:20:19;;;;;;;;;;;21.10;25.50;;;;;;5132051;27;19927;-51
2022/04/02 14:22:51;;;;;;;;;;;21.10;25.50;;;;;;5126321;27;20351;-54
2022/04/02 14:25:35;;;;;;;;;;;21.30;25.50;;;;;;5149882;27;19932;-57